Time;durP1;ratioP1;P1;durP2;ratioP2;P2;SDS_P1;SDS_P2;PMS_P1;PMS_P2;Temp;Humidity;BMP_temperature;BMP_pressure;BME280_temperature;BME280_humidity;BME280_pressure;Samples;Min_cycle;Max_cycle;Signal;HPM_P1;HPM_P2
2022/01/29 00:02:40;;;;;;;27.85;16.35;;;;;;;;;;6258786;28;20073;-63
2022/01/29 00:05:42;;;;;;;29.50;16.65;;;;;;;;;;6253443;28;20068;-64
2022/01/29 00:08:44;;;;;;;31.15;16.98;;;;;;;;;;6248964;28;20120;-63
2022/01/29 00:11:46;;;;;;;33.40;17.60;;;;;;;;;;6258167;28;20051;-63
2022/01/29 00:14:47;;;;;;;62.30;18.58;;;;;;;;;;6255854;28;20552;-64
2022/01/29 00:17:49;;;;;;;39.08;17.67;;;;;;;;;;6258802;28;20041;-63
2022/01/29 00:20:52;;;;;;;30.73;17.63;;;;;;;;;;6255060;28;20179;-63
2022/01/29 00:23:53;;;;;;;32.65;17.98;;;;;;;;;;6259793;28;20060;-62
2022/01/29 00:26:55;;;;;;;32.50;17.77;;;;;;;;;;6257021;28;20128;-62
2022/01/29 00:29:58;;;;;;;38.70;18.63;;;;;;;;;;6257545;28;20060;-62
2022/01/29 00:33:00;;;;;;;31.60;17.25;;;;;;;;;;6246467;28;20053;-62
2022/01/29 00:36:03;;;;;;;32.30;18.00;;;;;;;;;;6258305;28;20128;-62
2022/01/29 00:39:04;;;;;;;28.42;16.90;;;;;;;;;;6254636;28;20079;-62
2022/01/29 00:42:07;;;;;;;36.35;17.60;;;;;;;;;;6258234;28;20197;-62
2022/01/29 00:45:09;;;;;;;35.83;17.90;;;;;;;;;;6255938;28;20151;-64
2022/01/29 00:48:11;;;;;;;31.88;17.55;;;;;;;;;;6257318;28;20037;-62
2022/01/29 00:51:13;;;;;;;40.50;18.15;;;;;;;;;;6255568;28;20077;-62
2022/01/29 00:54:15;;;;;;;30.50;17.63;;;;;;;;;;6255092;28;20096;-63
2022/01/29 00:57:17;;;;;;;33.05;17.27;;;;;;;;;;6253438;28;20135;-62
2022/01/29 01:00:19;;;;;;;30.00;16.77;;;;;;;;;;6253515;28;20131;-62
2022/01/29 01:03:20;;;;;;;27.30;17.73;;;;;;;;;;6253234;28;20072;-62
2022/01/29 01:06:23;;;;;;;33.08;18.50;;;;;;;;;;6245295;28;20073;-62
2022/01/29 01:09:25;;;;;;;31.58;18.35;;;;;;;;;;6254465;28;20145;-63
2022/01/29 01:12:26;;;;;;;35.95;18.48;;;;;;;;;;6256742;28;20049;-62
2022/01/29 01:15:28;;;;;;;35.70;17.88;;;;;;;;;;6255090;28;20505;-64
2022/01/29 01:18:29;;;;;;;30.30;17.00;;;;;;;;;;6255389;28;20049;-62
2022/01/29 01:21:32;;;;;;;30.00;16.75;;;;;;;;;;6250922;28;20525;-62
2022/01/29 01:24:34;;;;;;;30.80;16.17;;;;;;;;;;6257132;28;20108;-62
2022/01/29 01:27:36;;;;;;;36.17;18.63;;;;;;;;;;6256687;28;20138;-62
2022/01/29 01:30:38;;;;;;;34.13;16.45;;;;;;;;;;6253083;28;20037;-61
2022/01/29 01:33:39;;;;;;;28.88;16.85;;;;;;;;;;6256495;28;20489;-61
2022/01/29 01:36:47;;;;;;;30.05;15.70;;;;;;;;;;6255808;28;20428;-62
2022/01/29 01:39:49;;;;;;;29.85;15.30;;;;;;;;;;6253067;28;20068;-62
2022/01/29 01:42:51;;;;;;;30.65;15.77;;;;;;;;;;6250572;28;20077;-61
2022/01/29 01:45:53;;;;;;;27.35;14.90;;;;;;;;;;6255237;28;20456;-62
2022/01/29 01:48:55;;;;;;;27.77;15.60;;;;;;;;;;6253831;28;20679;-62
2022/01/29 01:51:58;;;;;;;29.48;15.18;;;;;;;;;;6252328;28;20128;-62
2022/01/29 01:54:59;;;;;;;30.48;14.35;;;;;;;;;;6257177;28;20100;-61
2022/01/29 01:58:01;;;;;;;24.27;13.68;;;;;;;;;;6262493;28;20161;-64
2022/01/29 02:01:03;;;;;;;25.98;13.65;;;;;;;;;;6262463;28;20128;-62
2022/01/29 02:04:05;;;;;;;29.92;14.45;;;;;;;;;;6255840;28;20114;-63
2022/01/29 02:07:08;;;;;;;25.15;13.80;;;;;;;;;;6255624;28;20141;-62
2022/01/29 02:10:11;;;;;;;31.83;14.35;;;;;;;;;;6255390;28;20766;-63
2022/01/29 02:13:12;;;;;;;22.98;13.50;;;;;;;;;;6252765;28;20041;-62
2022/01/29 02:16:14;;;;;;;26.42;13.80;;;;;;;;;;6253803;28;20482;-62
2022/01/29 02:19:16;;;;;;;24.05;13.07;;;;;;;;;;6257436;28;20136;-61
2022/01/29 02:22:18;;;;;;;30.58;14.52;;;;;;;;;;6253973;28;20194;-61
2022/01/29 02:25:31;;;;;;;22.05;13.13;;;;;;;;;;6255251;28;20463;-62
2022/01/29 02:28:33;;;;;;;26.52;14.80;;;;;;;;;;6250991;28;20073;-62
2022/01/29 02:31:35;;;;;;;30.05;14.70;;;;;;;;;;6258913;28;20570;-62
2022/01/29 02:34:36;;;;;;;26.58;15.23;;;;;;;;;;6258035;28;20563;-63
2022/01/29 02:37:39;;;;;;;28.00;14.30;;;;;;;;;;6250399;28;20049;-62
2022/01/29 02:40:46;;;;;;;33.50;14.90;;;;;;;;;;6251953;28;20068;-61
2022/01/29 02:43:49;;;;;;;34.65;16.95;;;;;;;;;;6251306;28;20379;-62
2022/01/29 02:46:52;;;;;;;34.08;17.40;;;;;;;;;;6261153;28;20056;-62
2022/01/29 02:49:54;;;;;;;36.60;17.50;;;;;;;;;;6249361;28;20163;-62
2022/01/29 02:52:57;;;;;;;38.33;18.40;;;;;;;;;;6249638;28;20088;-61
2022/01/29 02:55:59;;;;;;;44.08;19.67;;;;;;;;;;6251738;28;20179;-64
2022/01/29 02:59:00;;;;;;;43.15;20.45;;;;;;;;;;6248555;28;20049;-63
2022/01/29 03:02:02;;;;;;;39.55;19.67;;;;;;;;;;6251824;28;20052;-62
2022/01/29 03:05:04;;;;;;;41.90;19.73;;;;;;;;;;6254170;28;20142;-64
2022/01/29 03:08:07;;;;;;;40.97;20.98;;;;;;;;;;6254361;28;20069;-63
2022/01/29 03:11:08;;;;;;;42.08;20.05;;;;;;;;;;6259206;28;20072;-63
2022/01/29 03:14:10;;;;;;;43.95;21.30;;;;;;;;;;6250771;28;20187;-64
2022/01/29 03:17:12;;;;;;;42.83;20.70;;;;;;;;;;6249192;28;20049;-63
2022/01/29 03:20:13;;;;;;;38.70;19.83;;;;;;;;;;6259402;28;20049;-62
2022/01/29 03:23:16;;;;;;;40.75;18.73;;;;;;;;;;6255598;28;20515;-62
2022/01/29 03:26:18;;;;;;;37.95;18.75;;;;;;;;;;6254730;28;20157;-62
2022/01/29 03:29:19;;;;;;;41.90;17.70;;;;;;;;;;6250190;28;20097;-62
2022/01/29 03:32:21;;;;;;;35.65;18.00;;;;;;;;;;6250740;28;20128;-63
2022/01/29 03:35:22;;;;;;;33.75;17.17;;;;;;;;;;6258192;28;20615;-62
2022/01/29 03:38:25;;;;;;;33.10;16.00;;;;;;;;;;6254308;28;20578;-62
2022/01/29 03:41:27;;;;;;;32.58;16.13;;;;;;;;;;6252464;28;20540;-61
2022/01/29 03:44:29;;;;;;;30.70;15.45;;;;;;;;;;6252249;28;20052;-61
2022/01/29 03:47:30;;;;;;;32.47;14.68;;;;;;;;;;6250056;28;20042;-62
2022/01/29 03:50:32;;;;;;;30.58;15.98;;;;;;;;;;6260735;28;20107;-62
2022/01/29 03:53:35;;;;;;;35.53;15.93;;;;;;;;;;6253637;28;20083;-61
2022/01/29 03:56:37;;;;;;;31.88;16.55;;;;;;;;;;6263019;28;20130;-61
2022/01/29 03:59:38;;;;;;;34.03;15.70;;;;;;;;;;6254132;28;20127;-62
2022/01/29 04:02:40;;;;;;;29.80;15.48;;;;;;;;;;6257781;28;20080;-62
2022/01/29 04:05:41;;;;;;;32.30;15.82;;;;;;;;;;6257877;28;20114;-62
2022/01/29 04:08:44;;;;;;;32.85;14.93;;;;;;;;;;6257576;28;20321;-62
2022/01/29 04:11:46;;;;;;;31.50;15.75;;;;;;;;;;6255628;28;20389;-62
2022/01/29 04:14:48;;;;;;;30.67;15.45;;;;;;;;;;6249690;28;20516;-62
2022/01/29 04:17:49;;;;;;;29.42;13.80;;;;;;;;;;6258387;28;20045;-62
2022/01/29 04:20:51;;;;;;;31.50;14.38;;;;;;;;;;6253539;28;20124;-62
2022/01/29 04:23:54;;;;;;;38.75;17.88;;;;;;;;;;6254544;28;20068;-62
2022/01/29 04:26:55;;;;;;;38.55;18.60;;;;;;;;;;6254392;28;20095;-62
2022/01/29 04:30:00;;;;;;;40.53;19.48;;;;;;;;;;6253348;28;20045;-61
2022/01/29 04:33:14;;;;;;;41.58;19.00;;;;;;;;;;6255431;28;20042;-62
2022/01/29 04:36:15;;;;;;;39.00;18.30;;;;;;;;;;6253317;28;20057;-62
2022/01/29 04:39:18;;;;;;;42.70;19.52;;;;;;;;;;6255479;28;20068;-61
2022/01/29 04:42:20;;;;;;;42.22;20.55;;;;;;;;;;6254129;28;20115;-62
2022/01/29 04:45:21;;;;;;;42.25;19.58;;;;;;;;;;6243622;28;20048;-61
2022/01/29 04:48:23;;;;;;;46.92;20.70;;;;;;;;;;6252921;28;20171;-62
2022/01/29 04:51:24;;;;;;;44.35;20.17;;;;;;;;;;6252766;28;20298;-61
2022/01/29 04:54:27;;;;;;;47.20;21.23;;;;;;;;;;6260104;28;20504;-61
2022/01/29 04:57:29;;;;;;;45.53;20.77;;;;;;;;;;6255102;28;20396;-61
2022/01/29 05:00:31;;;;;;;42.55;21.60;;;;;;;;;;6257329;28;20524;-62
2022/01/29 05:03:33;;;;;;;41.10;20.00;;;;;;;;;;6258150;28;20041;-62
2022/01/29 05:06:35;;;;;;;44.10;20.20;;;;;;;;;;6255564;28;20390;-61
2022/01/29 05:09:38;;;;;;;43.20;21.20;;;;;;;;;;6257074;28;20129;-61
2022/01/29 05:12:46;;;;;;;48.85;22.83;;;;;;;;;;6257810;28;20444;-61
2022/01/29 05:16:01;;;;;;;45.72;20.77;;;;;;;;;;6260356;28;20044;-62
2022/01/29 05:29:01;;;;;;;43.75;19.77;;;;;;;;;;6250754;28;20052;-62
2022/01/29 05:32:05;;;;;;;41.55;20.42;;;;;;;;;;6258930;28;20115;-62
2022/01/29 05:35:07;;;;;;;44.90;20.98;;;;;;;;;;6252597;28;20077;-62
2022/01/29 05:38:08;;;;;;;46.50;20.08;;;;;;;;;;6258244;28;20172;-61
2022/01/29 05:41:11;;;;;;;41.00;20.58;;;;;;;;;;6259722;28;20073;-62
2022/01/29 05:44:13;;;;;;;46.47;21.65;;;;;;;;;;6260033;28;20496;-62
2022/01/29 05:47:14;;;;;;;50.95;23.05;;;;;;;;;;6258553;28;20546;-62
2022/01/29 05:50:16;;;;;;;44.95;22.17;;;;;;;;;;6254420;28;20069;-64
2022/01/29 05:53:17;;;;;;;53.30;24.85;;;;;;;;;;6258064;28;20188;-62
2022/01/29 05:56:20;;;;;;;54.13;25.00;;;;;;;;;;6256376;28;20429;-62
2022/01/29 05:59:22;;;;;;;54.83;25.27;;;;;;;;;;6264356;28;20440;-62
2022/01/29 06:02:24;;;;;;;52.83;24.38;;;;;;;;;;6260720;28;20064;-62
2022/01/29 06:05:25;;;;;;;53.25;25.52;;;;;;;;;;6256555;28;20397;-62
2022/01/29 06:08:27;;;;;;;50.78;23.58;;;;;;;;;;6259986;28;20448;-62
2022/01/29 06:11:30;;;;;;;53.00;25.60;;;;;;;;;;6255228;28;20453;-62
2022/01/29 06:14:31;;;;;;;52.53;24.70;;;;;;;;;;6255537;28;20508;-61
2022/01/29 06:17:33;;;;;;;57.78;27.30;;;;;;;;;;6254482;28;20124;-62
2022/01/29 06:20:35;;;;;;;55.40;25.77;;;;;;;;;;6253337;28;20099;-62
2022/01/29 06:23:38;;;;;;;60.55;26.77;;;;;;;;;;6258589;28;20068;-61
2022/01/29 06:26:41;;;;;;;62.20;28.38;;;;;;;;;;6257082;28;20136;-61
2022/01/29 06:29:43;;;;;;;55.85;26.83;;;;;;;;;;6255656;28;20076;-62
2022/01/29 06:32:45;;;;;;;61.63;26.65;;;;;;;;;;6248556;28;20256;-62
2022/01/29 06:35:47;;;;;;;59.72;27.67;;;;;;;;;;6247942;28;20099;-62
2022/01/29 06:38:48;;;;;;;62.72;28.13;;;;;;;;;;6253728;28;20453;-62
2022/01/29 06:41:51;;;;;;;59.40;28.40;;;;;;;;;;6259408;28;20084;-63
2022/01/29 06:44:53;;;;;;;59.80;27.73;;;;;;;;;;6255743;28;20459;-62
2022/01/29 06:47:54;;;;;;;61.15;28.70;;;;;;;;;;6256700;28;20503;-62
2022/01/29 06:50:56;;;;;;;59.55;27.17;;;;;;;;;;6244708;28;20203;-61
2022/01/29 06:53:57;;;;;;;64.85;28.73;;;;;;;;;;6254985;28;20065;-62
2022/01/29 06:57:01;;;;;;;61.90;28.60;;;;;;;;;;6256179;28;20461;-62
2022/01/29 07:00:03;;;;;;;62.40;29.73;;;;;;;;;;6258808;28;20476;-62
2022/01/29 07:03:04;;;;;;;64.50;29.35;;;;;;;;;;6256834;28;20095;-62
2022/01/29 07:06:06;;;;;;;62.80;28.95;;;;;;;;;;6260579;28;20069;-62
2022/01/29 07:09:08;;;;;;;62.13;28.98;;;;;;;;;;6257451;28;20056;-62
2022/01/29 07:12:12;;;;;;;60.58;27.10;;;;;;;;;;6253904;28;20045;-62
2022/01/29 07:15:13;;;;;;;;;;;;;;;;;;6261053;28;20041;-62
2022/01/29 07:18:15;;;;;;;60.15;26.65;;;;;;;;;;6254553;28;20404;-63
2022/01/29 07:21:17;;;;;;;62.65;26.95;;;;;;;;;;6254943;28;20149;-62
2022/01/29 07:24:18;;;;;;;58.80;26.30;;;;;;;;;;6255393;28;20132;-61
2022/01/29 07:27:21;;;;;;;62.78;27.35;;;;;;;;;;6253008;28;20099;-62
2022/01/29 07:30:23;;;;;;;57.63;26.35;;;;;;;;;;6250632;28;20553;-62
2022/01/29 07:33:25;;;;;;;50.17;24.63;;;;;;;;;;6246057;28;20124;-62
2022/01/29 07:36:26;;;;;;;50.50;23.63;;;;;;;;;;6249885;28;20045;-63
2022/01/29 07:39:29;;;;;;;45.85;23.50;;;;;;;;;;6252252;28;20053;-61
2022/01/29 07:42:32;;;;;;;48.90;23.42;;;;;;;;;;6252650;28;20081;-62
2022/01/29 07:45:34;;;;;;;44.10;20.98;;;;;;;;;;6251879;28;20119;-63
2022/01/29 07:48:36;;;;;;;46.72;21.70;;;;;;;;;;6249526;28;20131;-62
2022/01/29 07:51:39;;;;;;;46.15;22.45;;;;;;;;;;6255271;28;20105;-64
2022/01/29 07:54:40;;;;;;;47.10;21.73;;;;;;;;;;6251114;28;20053;-63
2022/01/29 07:57:43;;;;;;;46.25;22.35;;;;;;;;;;6256220;28;20041;-61
2022/01/29 08:00:45;;;;;;;48.58;23.15;;;;;;;;;;6253303;28;20115;-63
2022/01/29 08:03:48;;;;;;;47.95;22.95;;;;;;;;;;6251213;28;20072;-63
2022/01/29 08:06:50;;;;;;;49.42;22.55;;;;;;;;;;6253739;28;20049;-62
2022/01/29 08:09:51;;;;;;;53.85;22.10;;;;;;;;;;6257420;28;20097;-61
2022/01/29 08:12:54;;;;;;;53.88;20.92;;;;;;;;;;6253582;28;20069;-63
2022/01/29 08:15:56;;;;;;;50.22;22.02;;;;;;;;;;6251531;28;20046;-62
2022/01/29 08:18:57;;;;;;;45.60;21.98;;;;;;;;;;6254646;28;20180;-62
2022/01/29 08:21:59;;;;;;;44.13;21.17;;;;;;;;;;6250376;28;20123;-62
2022/01/29 08:25:02;;;;;;;48.35;21.42;;;;;;;;;;6250990;28;20118;-61
2022/01/29 08:28:06;;;;;;;39.60;19.67;;;;;;;;;;6254387;28;20119;-62
2022/01/29 08:31:07;;;;;;;44.75;20.95;;;;;;;;;;6256175;28;20549;-64
2022/01/29 08:34:09;;;;;;;39.63;19.83;;;;;;;;;;6257180;28;20041;-64
2022/01/29 08:37:11;;;;;;;44.47;19.77;;;;;;;;;;6251498;28;20107;-63
2022/01/29 08:40:13;;;;;;;37.25;19.88;;;;;;;;;;6256081;28;20065;-64
2022/01/29 08:43:16;;;;;;;35.38;17.45;;;;;;;;;;6254390;28;20067;-64
2022/01/29 08:46:17;;;;;;;38.25;17.65;;;;;;;;;;6247714;28;20108;-64
2022/01/29 08:49:19;;;;;;;41.55;18.48;;;;;;;;;;6250287;28;20371;-62
2022/01/29 08:52:20;;;;;;;32.13;16.52;;;;;;;;;;6259531;28;20073;-62
2022/01/29 08:55:22;;;;;;;36.03;18.00;;;;;;;;;;6256116;28;20243;-64
2022/01/29 08:58:26;;;;;;;35.28;18.23;;;;;;;;;;6259944;28;20088;-64
2022/01/29 09:01:28;;;;;;;;;;;;;;;;;;6259296;28;20044;-65
2022/01/29 09:04:29;;;;;;;45.55;19.60;;;;;;;;;;6256414;28;19925;-64
2022/01/29 09:07:31;;;;;;;37.65;19.45;;;;;;;;;;6261185;28;20073;-62
2022/01/29 09:10:33;;;;;;;39.03;18.90;;;;;;;;;;6260603;28;20689;-64
2022/01/29 09:13:35;;;;;;;41.72;19.95;;;;;;;;;;6257080;28;20040;-63
2022/01/29 09:16:37;;;;;;;46.78;20.98;;;;;;;;;;6258125;28;20049;-62
2022/01/29 09:19:39;;;;;;;45.53;21.58;;;;;;;;;;6261067;28;20168;-62
2022/01/29 09:22:40;;;;;;;48.13;22.35;;;;;;;;;;6261747;28;20165;-64
2022/01/29 09:25:42;;;;;;;43.55;21.50;;;;;;;;;;6261924;28;20088;-64
2022/01/29 09:28:45;;;;;;;42.72;22.77;;;;;;;;;;6256372;28;20061;-64
2022/01/29 09:31:46;;;;;;;41.17;21.92;;;;;;;;;;6254485;28;20122;-65
2022/01/29 09:34:48;;;;;;;43.20;22.13;;;;;;;;;;6256106;28;20144;-64
2022/01/29 09:37:50;;;;;;;42.83;21.50;;;;;;;;;;6256282;28;20073;-64
2022/01/29 09:40:51;;;;;;;42.10;22.30;;;;;;;;;;6256124;28;20527;-65
2022/01/29 09:43:55;;;;;;;40.80;22.10;;;;;;;;;;6255046;28;20044;-64
2022/01/29 09:46:57;;;;;;;;;;;;;;;;;;6255119;28;20477;-64
2022/01/29 09:49:58;;;;;;;43.03;23.45;;;;;;;;;;6254304;28;19928;-64
2022/01/29 09:53:01;;;;;;;41.22;24.05;;;;;;;;;;6256434;28;20176;-63
2022/01/29 09:56:03;;;;;;;45.38;24.70;;;;;;;;;;6259964;28;20140;-62
2022/01/29 09:59:06;;;;;;;133.80;28.50;;;;;;;;;;6255560;28;20096;-62
2022/01/29 10:02:14;;;;;;;48.70;24.55;;;;;;;;;;6255609;28;20130;-63
2022/01/29 10:05:15;;;;;;;38.20;24.08;;;;;;;;;;6253324;28;20107;-66
2022/01/29 10:08:17;;;;;;;45.13;24.60;;;;;;;;;;6255055;28;20631;-64
2022/01/29 10:11:20;;;;;;;50.08;25.15;;;;;;;;;;6254390;28;20174;-63
2022/01/29 10:14:23;;;;;;;46.78;26.17;;;;;;;;;;6255748;28;20141;-63
2022/01/29 10:17:42;;;;;;;42.33;25.58;;;;;;;;;;6258927;28;20077;-65
2022/01/29 10:20:44;;;;;;;43.58;25.92;;;;;;;;;;6256996;28;20512;-65
2022/01/29 10:23:46;;;;;;;43.65;26.70;;;;;;;;;;6258073;28;20088;-65
2022/01/29 10:26:49;;;;;;;40.90;25.20;;;;;;;;;;6258817;28;20053;-63
2022/01/29 10:30:00;;;;;;;40.57;24.57;;;;;;;;;;6258215;28;20045;-66
2022/01/29 10:33:16;;;;;;;42.42;25.10;;;;;;;;;;6252393;28;20046;-65
2022/01/29 10:36:19;;;;;;;39.72;23.60;;;;;;;;;;6261162;28;20162;-65
2022/01/29 10:39:30;;;;;;;44.80;25.20;;;;;;;;;;6261185;28;20141;-64
2022/01/29 10:42:34;;;;;;;37.78;23.13;;;;;;;;;;6254846;28;20494;-65
2022/01/29 10:45:37;;;;;;;40.42;24.23;;;;;;;;;;6255352;28;20386;-63
2022/01/29 10:48:43;;;;;;;43.03;24.90;;;;;;;;;;6253754;28;20056;-63
2022/01/29 10:51:55;;;;;;;40.67;24.40;;;;;;;;;;6253764;28;20051;-66
2022/01/29 10:54:59;;;;;;;42.38;24.10;;;;;;;;;;6248424;28;20049;-65
2022/01/29 10:58:01;;;;;;;39.15;22.80;;;;;;;;;;6256686;28;20143;-64
2022/01/29 11:01:14;;;;;;;39.63;23.15;;;;;;;;;;6253203;28;20048;-65
2022/01/29 11:04:16;;;;;;;39.90;22.92;;;;;;;;;;6258375;28;20515;-65
2022/01/29 11:07:19;;;;;;;41.28;23.58;;;;;;;;;;6255698;28;20084;-63
2022/01/29 11:10:21;;;;;;;38.92;23.15;;;;;;;;;;6252534;28;20211;-63
2022/01/29 11:13:23;;;;;;;36.80;21.95;;;;;;;;;;6254870;28;20579;-65
2022/01/29 11:16:26;;;;;;;39.58;22.23;;;;;;;;;;6251748;28;20191;-62
2022/01/29 11:19:28;;;;;;;34.77;20.60;;;;;;;;;;6249689;28;20521;-62
2022/01/29 11:22:31;;;;;;;39.80;23.70;;;;;;;;;;6251387;28;20493;-62
2022/01/29 11:25:34;;;;;;;39.83;23.33;;;;;;;;;;6250364;28;20050;-63
2022/01/29 11:28:36;;;;;;;37.78;22.20;;;;;;;;;;6254096;28;20065;-62
2022/01/29 11:31:39;;;;;;;36.20;22.17;;;;;;;;;;6253156;28;20045;-61
2022/01/29 11:35:22;;;;;;;35.92;23.48;;;;;;;;;;6249113;28;20491;-61
2022/01/29 11:38:28;;;;;;;33.85;22.40;;;;;;;;;;6205436;28;20088;-61
2022/01/29 11:41:30;;;;;;;36.38;23.23;;;;;;;;;;6256672;28;20052;-62
2022/01/29 11:44:31;;;;;;;35.30;22.27;;;;;;;;;;6248658;28;20053;-61
2022/01/29 11:47:50;;;;;;;35.30;22.10;;;;;;;;;;6251573;28;20103;-63
2022/01/29 11:50:53;;;;;;;34.97;20.42;;;;;;;;;;6254363;28;20111;-64
2022/01/29 11:53:58;;;;;;;37.30;22.50;;;;;;;;;;6252104;28;20131;-62
2022/01/29 11:57:08;;;;;;;37.60;21.10;;;;;;;;;;6257409;28;20061;-63
2022/01/29 12:00:34;;;;;;;38.70;21.33;;;;;;;;;;6257354;28;20392;-65
2022/01/29 12:04:01;;;;;;;35.97;21.83;;;;;;;;;;6253419;28;20143;-63
2022/01/29 12:07:12;;;;;;;40.30;21.70;;;;;;;;;;6246027;28;20076;-63
2022/01/29 12:10:15;;;;;;;38.83;20.55;;;;;;;;;;6248440;28;20599;-63
2022/01/29 12:13:16;;;;;;;41.70;23.55;;;;;;;;;;6257021;28;20128;-62
2022/01/29 12:16:48;;;;;;;41.50;22.25;;;;;;;;;;6256425;28;20175;-63
2022/01/29 12:19:51;;;;;;;39.97;22.83;;;;;;;;;;6255865;28;20053;-63
2022/01/29 12:23:00;;;;;;;40.38;22.20;;;;;;;;;;6257323;28;20134;-62
2022/01/29 12:26:01;;;;;;;40.40;22.25;;;;;;;;;;6255666;28;20119;-62
2022/01/29 12:29:03;;;;;;;38.60;21.83;;;;;;;;;;6256322;28;20158;-63
2022/01/29 12:32:06;;;;;;;44.05;22.75;;;;;;;;;;6252392;28;20493;-64
2022/01/29 12:35:09;;;;;;;38.58;22.20;;;;;;;;;;6254773;28;20084;-64
2022/01/29 12:38:13;;;;;;;40.15;21.98;;;;;;;;;;6252149;28;20107;-63
2022/01/29 12:41:24;;;;;;;42.38;23.58;;;;;;;;;;6248742;28;20055;-63
2022/01/29 12:44:26;;;;;;;41.47;20.90;;;;;;;;;;6257568;28;20045;-63
2022/01/29 12:47:29;;;;;;;39.55;22.20;;;;;;;;;;6249780;28;20178;-63
2022/01/29 12:50:31;;;;;;;42.38;24.65;;;;;;;;;;6254635;28;20054;-62
2022/01/29 12:53:35;;;;;;;42.42;23.15;;;;;;;;;;6249027;28;20053;-63
2022/01/29 12:56:38;;;;;;;40.78;23.85;;;;;;;;;;6249545;28;20081;-63
2022/01/29 12:59:39;;;;;;;48.35;25.90;;;;;;;;;;6251071;28;20083;-62
2022/01/29 13:02:41;;;;;;;43.80;24.88;;;;;;;;;;6262107;28;20081;-63
2022/01/29 13:05:45;;;;;;;43.55;25.73;;;;;;;;;;6255958;28;20123;-63
2022/01/29 13:08:46;;;;;;;43.88;26.35;;;;;;;;;;6259738;28;20118;-63
2022/01/29 13:11:49;;;;;;;46.13;26.25;;;;;;;;;;6245403;28;20120;-65
2022/01/29 13:14:51;;;;;;;47.77;27.17;;;;;;;;;;6253887;28;20128;-65
2022/01/29 13:17:53;;;;;;;47.08;26.85;;;;;;;;;;6257092;28;20047;-65
2022/01/29 13:20:56;;;;;;;44.03;26.45;;;;;;;;;;6253706;28;20401;-65
2022/01/29 13:23:58;;;;;;;40.35;25.50;;;;;;;;;;6255853;28;20449;-65
2022/01/29 13:27:02;;;;;;;45.53;26.67;;;;;;;;;;6253845;28;20053;-65
2022/01/29 13:30:18;;;;;;;43.45;26.80;;;;;;;;;;6255450;28;20045;-65
2022/01/29 13:33:21;;;;;;;49.10;28.05;;;;;;;;;;6256569;28;20053;-65
2022/01/29 13:36:32;;;;;;;45.08;26.23;;;;;;;;;;6255951;28;20519;-65
2022/01/29 13:39:47;;;;;;;45.78;27.10;;;;;;;;;;6257502;28;20516;-63
2022/01/29 13:42:56;;;;;;;46.65;25.52;;;;;;;;;;6254680;28;20056;-61
2022/01/29 13:45:59;;;;;;;43.90;26.30;;;;;;;;;;6256795;28;20494;-63
2022/01/29 13:49:03;;;;;;;43.72;26.30;;;;;;;;;;6261411;28;20195;-65
2022/01/29 13:52:18;;;;;;;45.97;26.00;;;;;;;;;;6258442;28;20052;-65
2022/01/29 13:55:19;;;;;;;45.08;26.75;;;;;;;;;;6256044;28;20068;-64
2022/01/29 13:58:21;;;;;;;46.60;26.30;;;;;;;;;;6261844;28;20124;-65
2022/01/29 14:01:37;;;;;;;49.42;27.17;;;;;;;;;;6263017;28;20127;-65
2022/01/29 14:04:40;;;;;;;44.53;27.02;;;;;;;;;;6263288;28;20105;-64
2022/01/29 14:07:43;;;;;;;51.15;27.77;;;;;;;;;;6261288;28;20060;-64
2022/01/29 14:10:45;;;;;;;67.05;38.63;;;;;;;;;;6262581;28;20119;-65
2022/01/29 14:13:47;;;;;;;46.33;26.80;;;;;;;;;;6257907;28;20057;-64
2022/01/29 14:16:48;;;;;;;42.95;26.45;;;;;;;;;;6258198;28;20132;-63
2022/01/29 14:19:52;;;;;;;40.70;24.92;;;;;;;;;;6257702;28;20119;-63
2022/01/29 14:22:55;;;;;;;48.17;27.20;;;;;;;;;;6257956;28;20116;-63
2022/01/29 14:25:57;;;;;;;44.33;25.70;;;;;;;;;;6257272;28;20075;-64
2022/01/29 14:28:58;;;;;;;44.55;26.58;;;;;;;;;;6259044;28;20565;-64
2022/01/29 14:32:00;;;;;;;48.47;25.70;;;;;;;;;;6255186;28;20263;-64
2022/01/29 14:35:04;;;;;;;48.42;26.50;;;;;;;;;;6254320;28;20076;-64
2022/01/29 14:38:07;;;;;;;;;;;;;;;;;;6259390;28;20087;-64
2022/01/29 14:41:08;;;;;;;43.70;24.88;;;;;;;;;;6257337;28;20465;-64
2022/01/29 14:44:10;;;;;;;46.92;25.75;;;;;;;;;;6255622;28;20132;-63
2022/01/29 14:47:13;;;;;;;44.95;25.65;;;;;;;;;;6260703;28;20088;-63
2022/01/29 14:50:15;;;;;;;47.15;25.88;;;;;;;;;;6253958;28;20056;-63
2022/01/29 14:53:19;;;;;;;48.00;26.23;;;;;;;;;;6257570;28;20503;-63
2022/01/29 14:56:21;;;;;;;46.25;26.20;;;;;;;;;;6256741;28;20045;-64
2022/01/29 14:59:23;;;;;;;42.65;25.90;;;;;;;;;;6255479;28;20118;-64
2022/01/29 15:02:26;;;;;;;46.25;25.98;;;;;;;;;;6260995;28;20379;-64
2022/01/29 15:05:27;;;;;;;51.53;25.73;;;;;;;;;;6253710;28;20049;-63
2022/01/29 15:08:30;;;;;;;42.63;25.63;;;;;;;;;;6259287;28;20111;-64
2022/01/29 15:11:32;;;;;;;47.03;25.47;;;;;;;;;;6253611;28;20045;-64
2022/01/29 15:14:33;;;;;;;45.67;26.70;;;;;;;;;;6258855;28;20212;-63
2022/01/29 15:17:35;;;;;;;49.10;26.48;;;;;;;;;;6259036;28;20116;-63
2022/01/29 15:20:37;;;;;;;48.92;26.25;;;;;;;;;;6257935;28;20535;-63
2022/01/29 15:23:40;;;;;;;46.60;26.83;;;;;;;;;;6258792;28;20115;-64
2022/01/29 15:26:42;;;;;;;49.03;27.73;;;;;;;;;;6254647;28;20132;-64
2022/01/29 15:29:43;;;;;;;48.30;25.67;;;;;;;;;;6260963;28;20084;-63
2022/01/29 15:32:48;;;;;;;49.80;26.70;;;;;;;;;;6256462;28;20156;-64
2022/01/29 15:35:49;;;;;;;52.78;27.02;;;;;;;;;;6254672;28;20045;-63
2022/01/29 15:38:52;;;;;;;49.67;26.52;;;;;;;;;;6262224;28;20103;-65
2022/01/29 15:41:54;;;;;;;51.00;30.07;;;;;;;;;;6255450;28;20049;-64
2022/01/29 15:44:55;;;;;;;49.80;27.50;;;;;;;;;;6253990;28;20511;-66
2022/01/29 15:47:57;;;;;;;51.72;28.90;;;;;;;;;;6250814;28;20164;-66
2022/01/29 15:50:59;;;;;;;49.70;27.55;;;;;;;;;;6249913;28;20520;-66
2022/01/29 15:54:02;;;;;;;47.28;26.23;;;;;;;;;;6249805;28;20540;-66
2022/01/29 15:57:04;;;;;;;49.20;26.70;;;;;;;;;;6255663;28;20151;-66
2022/01/29 16:00:08;;;;;;;54.35;28.15;;;;;;;;;;6252172;28;20287;-67
2022/01/29 16:03:10;;;;;;;55.92;28.15;;;;;;;;;;6253417;28;20131;-66
2022/01/29 16:06:13;;;;;;;52.40;27.48;;;;;;;;;;6253242;28;20485;-66
2022/01/29 16:09:19;;;;;;;49.55;27.27;;;;;;;;;;6253364;28;20049;-66
2022/01/29 16:12:20;;;;;;;49.40;27.83;;;;;;;;;;6252673;28;20050;-66
2022/01/29 16:15:22;;;;;;;52.72;27.73;;;;;;;;;;6247475;28;20172;-63
2022/01/29 16:18:25;;;;;;;51.90;25.65;;;;;;;;;;6251034;28;20162;-64
2022/01/29 16:21:29;;;;;;;51.53;26.05;;;;;;;;;;6249343;28;20124;-63
2022/01/29 16:24:32;;;;;;;52.08;26.33;;;;;;;;;;6249150;28;20060;-66
2022/01/29 16:27:34;;;;;;;50.80;26.70;;;;;;;;;;6253933;28;20405;-66
2022/01/29 16:30:35;;;;;;;54.83;26.98;;;;;;;;;;6250896;28;20068;-66
2022/01/29 16:33:37;;;;;;;57.03;28.27;;;;;;;;;;6250442;28;20060;-66
2022/01/29 16:36:39;;;;;;;52.53;26.83;;;;;;;;;;6253372;28;20131;-65
2022/01/29 16:39:42;;;;;;;52.83;26.08;;;;;;;;;;6249621;28;20117;-66
2022/01/29 16:42:44;;;;;;;57.00;27.55;;;;;;;;;;6248337;28;20236;-65
2022/01/29 16:45:45;;;;;;;51.03;26.52;;;;;;;;;;6254637;28;20124;-66
2022/01/29 16:48:47;;;;;;;52.65;26.73;;;;;;;;;;6247663;28;20084;-66
2022/01/29 16:51:49;;;;;;;50.40;25.33;;;;;;;;;;6247408;28;20136;-66
2022/01/29 16:54:52;;;;;;;55.08;25.67;;;;;;;;;;6255138;28;20128;-66
2022/01/29 16:57:53;;;;;;;60.10;26.05;;;;;;;;;;6251082;28;20159;-66
2022/01/29 17:00:55;;;;;;;52.28;24.38;;;;;;;;;;6252616;28;20131;-66
2022/01/29 17:03:57;;;;;;;54.70;27.00;;;;;;;;;;6250984;28;20033;-66
2022/01/29 17:06:58;;;;;;;51.40;26.17;;;;;;;;;;6247966;28;20107;-66
2022/01/29 17:10:01;;;;;;;52.63;26.85;;;;;;;;;;6253643;28;20094;-66
2022/01/29 17:13:03;;;;;;;57.25;28.67;;;;;;;;;;6256707;28;20095;-66
2022/01/29 17:16:11;;;;;;;61.10;29.90;;;;;;;;;;6251145;28;20037;-65
2022/01/29 17:19:13;;;;;;;55.10;29.40;;;;;;;;;;6249900;28;20049;-65
2022/01/29 17:22:15;;;;;;;55.90;28.98;;;;;;;;;;6261065;28;20053;-66
2022/01/29 17:25:18;;;;;;;56.25;29.45;;;;;;;;;;6258638;28;20061;-65
2022/01/29 17:28:25;;;;;;;59.72;29.40;;;;;;;;;;6258851;28;20533;-66
2022/01/29 17:31:27;;;;;;;56.15;28.35;;;;;;;;;;6260576;28;20084;-66
2022/01/29 17:34:30;;;;;;;57.80;28.73;;;;;;;;;;6260637;28;20390;-66
2022/01/29 17:37:32;;;;;;;53.33;28.13;;;;;;;;;;6257472;28;20048;-67
2022/01/29 17:40:35;;;;;;;54.75;27.80;;;;;;;;;;6262076;28;20132;-66
2022/01/29 17:43:36;;;;;;;51.40;27.55;;;;;;;;;;6257435;28;20135;-66
2022/01/29 17:46:38;;;;;;;55.05;27.95;;;;;;;;;;6262933;28;20053;-65
2022/01/29 17:49:40;;;;;;;58.65;28.55;;;;;;;;;;6255801;28;20501;-65
2022/01/29 17:52:41;;;;;;;60.58;29.75;;;;;;;;;;6258709;28;20140;-65
2022/01/29 17:55:44;;;;;;;54.25;29.10;;;;;;;;;;6264157;28;20118;-65
2022/01/29 17:58:46;;;;;;;51.35;27.27;;;;;;;;;;6257855;28;20099;-65